Terminal Aerodrome Forecast
Issued by NWS Upton, NY

Home | Current Version | Previous Version | Text Only | Print | Product List | Glossary On
Versions: 1 2 3 4 5 6 7 8 9 10 11 12 13 14 15 16 17 18 19 20 21 22 23 24 25 26 27 28 29 30 31 32 33 34
000
FTUS41 KOKX 251939 AAB
TAFLGA
TAF AMD
KLGA 251939Z 2520/2618 30012G20KT P6SM BKN070
     FM252015 VRB06KT P6SM BKN070
     FM252100 18010KT P6SM SCT070
     FM252300 26011KT P6SM SCT070
     FM260100 27008KT P6SM SCT070
     FM260400 28006KT P6SM SCT120
     FM261600 24009KT P6SM SCT050=

USA.gov is the U.S. government's official web portal to all federal, state and local government web resources and services.